createdAt,value
2019-01-14T00:00:58.425Z,983.57
2019-01-14T00:01:58.441Z,983.41
2019-01-14T00:02:58.457Z,983.59
2019-01-14T00:03:58.471Z,983.73
2019-01-14T00:04:58.487Z,983.71
2019-01-14T00:05:58.502Z,983.95
2019-01-14T00:06:58.517Z,983.77
2019-01-14T00:07:58.532Z,983.91
2019-01-14T00:08:58.548Z,983.68
2019-01-14T00:09:58.563Z,983.8
2019-01-14T00:10:58.629Z,983.85
2019-01-14T00:11:58.593Z,983.95
2019-01-14T00:12:58.608Z,983.92
2019-01-14T00:13:58.624Z,984.03
2019-01-14T00:14:58.639Z,983.87
2019-01-14T00:15:58.654Z,983.75
2019-01-14T00:16:58.670Z,983.96
2019-01-14T00:17:58.684Z,984.17
2019-01-14T00:18:58.799Z,984.18
2019-01-14T00:19:58.715Z,983.79
2019-01-14T00:20:58.730Z,984.03
2019-01-14T00:21:58.746Z,983.91
2019-01-14T00:22:58.760Z,984.18
2019-01-14T00:23:58.800Z,984.22
2019-01-14T00:24:58.791Z,984.25
2019-01-14T00:25:58.804Z,984.25
2019-01-14T00:27:58.835Z,984.29
2019-01-14T00:28:58.851Z,984.3
2019-01-14T00:29:58.865Z,984.22
2019-01-14T00:30:58.880Z,984.33
2019-01-14T00:31:58.896Z,984.38
2019-01-14T00:32:58.911Z,984.35
2019-01-14T00:33:58.925Z,984.36
2019-01-14T00:34:58.940Z,984.27
2019-01-14T00:35:58.956Z,984.26
2019-01-14T00:36:58.970Z,984.25
2019-01-14T00:37:58.985Z,984.27
2019-01-14T00:38:59.001Z,984.28
2019-01-14T00:39:59.016Z,984.5
2019-01-14T00:40:59.030Z,984.26
2019-01-14T00:41:59.045Z,984.39
2019-01-14T00:43:59.076Z,984.4
2019-01-14T00:44:59.090Z,984.46
2019-01-14T00:45:59.107Z,984.49
2019-01-14T00:46:59.120Z,984.38
2019-01-14T00:47:59.135Z,984.52
2019-01-14T00:48:59.150Z,984.52
2019-01-14T00:49:59.168Z,984.57
2019-01-14T00:50:59.180Z,984.61
2019-01-14T00:51:59.194Z,984.57
2019-01-14T00:52:59.209Z,984.7
2019-01-14T00:53:59.224Z,984.63
2019-01-14T00:54:59.297Z,984.6
2019-01-14T00:55:59.254Z,984.72
2019-01-14T00:56:59.272Z,984.88
2019-01-14T00:57:59.284Z,984.74
2019-01-14T00:59:59.314Z,984.88
2019-01-14T01:00:59.330Z,984.81
2019-01-14T01:01:59.344Z,984.93
2019-01-14T01:02:59.358Z,984.92
2019-01-14T01:03:59.377Z,984.92
2019-01-14T01:04:59.388Z,984.94
2019-01-14T01:05:59.404Z,985.1
2019-01-14T01:06:59.418Z,985.08
2019-01-14T01:07:59.433Z,985.23
2019-01-14T01:08:59.448Z,985.12
2019-01-14T01:09:59.463Z,985.1
2019-01-14T01:10:59.477Z,985.19
2019-01-14T01:11:59.493Z,985.16
2019-01-14T01:12:59.509Z,985.23
2019-01-14T01:13:59.522Z,985.2
2019-01-14T01:15:59.552Z,985.38
2019-01-14T01:16:59.568Z,985.1
2019-01-14T01:17:59.581Z,985.09
2019-01-14T01:18:59.596Z,985.3
2019-01-14T01:19:59.612Z,985.49
2019-01-14T01:20:59.627Z,985.3
2019-01-14T01:21:59.641Z,985.34
2019-01-14T01:22:59.656Z,985.38
2019-01-14T01:23:59.671Z,985.4
2019-01-14T01:24:59.685Z,985.37
2019-01-14T01:25:59.702Z,985.45
2019-01-14T01:26:59.716Z,985.44
2019-01-14T01:27:59.731Z,985.59
2019-01-14T01:28:59.747Z,985.43
2019-01-14T01:30:59.776Z,985.66
2019-01-14T01:31:59.791Z,985.49
2019-01-14T01:32:59.807Z,985.64
2019-01-14T01:33:59.822Z,985.53
2019-01-14T01:34:59.837Z,985.62
2019-01-14T01:35:59.849Z,985.53
2019-01-14T01:36:59.864Z,985.7
2019-01-14T01:37:59.880Z,985.55
2019-01-14T01:38:59.898Z,985.58
2019-01-14T01:39:59.908Z,985.91
2019-01-14T01:40:59.924Z,985.73
2019-01-14T01:41:59.938Z,985.77
2019-01-14T01:42:59.953Z,985.87
2019-01-14T01:43:59.967Z,985.9
2019-01-14T01:44:59.983Z,985.67
2019-01-14T01:45:59.998Z,985.86
2019-01-14T01:47:00.012Z,985.8
2019-01-14T01:48:00.027Z,985.93
2019-01-14T01:49:00.042Z,986.01
2019-01-14T01:50:00.056Z,985.99
2019-01-14T01:51:00.071Z,986
2019-01-14T01:52:00.101Z,986.11
2019-01-14T01:53:00.101Z,986.17
2019-01-14T01:54:00.116Z,986.17
2019-01-14T01:55:00.237Z,986.29
2019-01-14T01:56:00.144Z,985.94
2019-01-14T01:57:00.159Z,986.29
2019-01-14T01:58:00.173Z,986.22
2019-01-14T01:59:00.190Z,986.32
2019-01-14T02:00:00.203Z,986.21
2019-01-14T02:01:00.217Z,986.36
2019-01-14T02:03:00.246Z,986.33
2019-01-14T02:04:00.261Z,986.38
2019-01-14T02:05:00.279Z,986.41
2019-01-14T02:06:00.290Z,986.48
2019-01-14T02:07:00.304Z,986.41
2019-01-14T02:08:00.319Z,986.46
2019-01-14T02:09:00.334Z,986.54
2019-01-14T02:10:00.348Z,986.41
2019-01-14T02:11:00.365Z,986.56
2019-01-14T02:12:00.377Z,986.57
2019-01-14T02:13:00.392Z,986.66
2019-01-14T02:14:00.406Z,986.62
2019-01-14T02:15:00.422Z,986.76
2019-01-14T02:16:00.435Z,986.57
2019-01-14T02:17:00.450Z,986.83
2019-01-14T02:19:00.482Z,986.7
2019-01-14T02:20:00.494Z,986.81
2019-01-14T02:21:00.508Z,986.76
2019-01-14T02:22:00.523Z,986.84
2019-01-14T02:23:00.537Z,986.82
2019-01-14T02:24:00.551Z,987.02
2019-01-14T02:25:00.566Z,986.88
2019-01-14T02:26:00.588Z,986.89
2019-01-14T02:27:00.595Z,986.93
2019-01-14T02:28:00.609Z,986.96
2019-01-14T02:29:00.624Z,986.89
2019-01-14T02:30:00.640Z,986.94
2019-01-14T02:31:00.653Z,986.91
2019-01-14T02:32:00.669Z,986.73
2019-01-14T02:33:00.691Z,986.99
2019-01-14T02:35:00.711Z,986.89
2019-01-14T02:36:00.727Z,986.99
2019-01-14T02:37:00.741Z,986.99
2019-01-14T02:38:00.755Z,987.13
2019-01-14T02:39:00.769Z,987.13
2019-01-14T02:40:00.784Z,986.87
2019-01-14T02:41:00.799Z,987.22
2019-01-14T02:42:00.812Z,987.14
2019-01-14T02:43:00.833Z,986.94
2019-01-14T02:44:00.845Z,987.27
2019-01-14T02:45:00.855Z,987.28
2019-01-14T02:46:00.871Z,987.26
2019-01-14T02:47:00.885Z,987.4
2019-01-14T02:48:00.899Z,987.4
2019-01-14T02:49:00.913Z,987.37
2019-01-14T02:51:00.942Z,987.54
2019-01-14T02:52:00.957Z,987.42
2019-01-14T02:53:00.972Z,987.61
2019-01-14T02:54:00.985Z,987.49
2019-01-14T02:55:01.000Z,987.58
2019-01-14T02:56:01.014Z,987.66
2019-01-14T02:57:01.032Z,987.62
2019-01-14T02:58:01.046Z,987.52
2019-01-14T02:59:01.057Z,987.67
2019-01-14T03:00:01.071Z,987.74
2019-01-14T03:01:01.086Z,987.82
2019-01-14T03:02:01.100Z,987.77
2019-01-14T03:03:01.116Z,987.88
2019-01-14T03:04:01.129Z,988.04
2019-01-14T03:06:01.158Z,988
2019-01-14T03:07:01.173Z,988
2019-01-14T03:08:01.239Z,987.91
2019-01-14T03:09:01.202Z,987.98
2019-01-14T03:10:01.216Z,987.91
2019-01-14T03:11:01.230Z,988.05
2019-01-14T03:12:01.244Z,988.01
2019-01-14T03:13:01.259Z,988.11
2019-01-14T03:14:01.272Z,988.17
2019-01-14T03:15:01.289Z,988.15
2019-01-14T03:16:01.301Z,988.24
2019-01-14T03:17:01.317Z,988.23
2019-01-14T03:18:01.330Z,988.24
2019-01-14T03:19:01.345Z,988.33
2019-01-14T03:20:01.453Z,988.25
2019-01-14T03:21:01.373Z,988.46
2019-01-14T03:22:01.388Z,988.32
2019-01-14T03:23:01.402Z,988.49
2019-01-14T03:24:01.417Z,988.29
2019-01-14T03:25:01.432Z,988.41
2019-01-14T03:26:01.446Z,988.46
2019-01-14T03:27:01.459Z,988.58
2019-01-14T03:28:01.478Z,988.51
2019-01-14T03:29:01.488Z,988.53
2019-01-14T03:30:01.503Z,988.69
2019-01-14T03:31:01.519Z,988.63
2019-01-14T03:32:01.533Z,988.7
2019-01-14T03:33:01.645Z,988.7
2019-01-14T03:34:01.561Z,988.72
2019-01-14T03:35:01.585Z,988.67
2019-01-14T03:36:01.589Z,988.72
2019-01-14T03:38:01.618Z,988.65
2019-01-14T03:39:01.634Z,988.84
2019-01-14T03:40:01.652Z,988.9
2019-01-14T03:41:01.660Z,988.84
2019-01-14T03:42:01.676Z,989
2019-01-14T03:43:01.690Z,988.97
2019-01-14T03:44:01.704Z,989.02
2019-01-14T03:45:01.723Z,988.98
2019-01-14T03:46:01.733Z,989.03
2019-01-14T03:47:01.747Z,989.01
2019-01-14T03:48:01.761Z,989.04
2019-01-14T03:49:01.775Z,988.96
2019-01-14T03:50:01.795Z,989.06
2019-01-14T03:51:01.805Z,989.08
2019-01-14T03:52:01.818Z,989.09
2019-01-14T03:54:01.871Z,989.19
2019-01-14T03:55:01.866Z,989.03
2019-01-14T03:56:01.876Z,989.05
2019-01-14T03:57:01.891Z,989.16
2019-01-14T03:58:01.904Z,989.25
2019-01-14T03:59:01.918Z,989.33
2019-01-14T04:00:01.936Z,989.18
2019-01-14T04:01:01.951Z,989.27
2019-01-14T04:02:01.961Z,989.11
2019-01-14T04:03:01.975Z,989.27
2019-01-14T04:04:01.993Z,989.2
2019-01-14T04:05:02.006Z,989.36
2019-01-14T04:06:02.018Z,989.37
2019-01-14T04:07:02.034Z,989.34
2019-01-14T04:08:02.056Z,989.29
2019-01-14T04:10:02.075Z,989.39
2019-01-14T04:11:02.091Z,989.33
2019-01-14T04:12:02.103Z,989.37
2019-01-14T04:13:02.120Z,989.45
2019-01-14T04:14:02.135Z,989.47
2019-01-14T04:15:02.147Z,989.45
2019-01-14T04:16:02.161Z,989.49
2019-01-14T04:17:02.175Z,989.68
2019-01-14T04:18:02.190Z,989.49
2019-01-14T04:19:02.204Z,989.52
2019-01-14T04:20:02.223Z,989.54
2019-01-14T04:21:02.232Z,989.62
2019-01-14T04:22:02.248Z,989.66
2019-01-14T04:23:02.260Z,989.47
2019-01-14T04:24:02.274Z,989.56
2019-01-14T04:26:02.303Z,989.61
2019-01-14T04:27:02.321Z,989.57
2019-01-14T04:28:02.330Z,989.7
2019-01-14T04:29:02.344Z,989.69
2019-01-14T04:30:02.394Z,989.68
2019-01-14T04:31:02.372Z,989.75
2019-01-14T04:32:02.389Z,989.82
2019-01-14T04:33:02.419Z,989.65
2019-01-14T04:34:02.423Z,989.86
2019-01-14T04:35:02.428Z,989.92
2019-01-14T04:36:02.446Z,989.98
2019-01-14T04:37:02.457Z,989.87
2019-01-14T04:38:02.473Z,989.89
2019-01-14T04:39:02.498Z,989.9
2019-01-14T04:41:02.515Z,990.04
2019-01-14T04:42:02.529Z,989.93
2019-01-14T04:43:02.542Z,990.03
2019-01-14T04:44:02.557Z,990.07
2019-01-14T04:45:02.571Z,990.11
2019-01-14T04:46:02.584Z,990.07
2019-01-14T04:47:02.598Z,989.93
2019-01-14T04:48:02.613Z,990.14
2019-01-14T04:49:02.627Z,990.25
2019-01-14T04:50:02.641Z,990.34
2019-01-14T04:51:02.654Z,990.12
2019-01-14T04:52:02.668Z,990.27
2019-01-14T04:53:02.682Z,990.31
2019-01-14T04:54:02.695Z,990.5
2019-01-14T04:55:02.710Z,990.45
2019-01-14T04:56:02.724Z,990.36
2019-01-14T04:57:02.737Z,990.43
2019-01-14T04:58:02.751Z,990.51
2019-01-14T04:59:02.766Z,990.48
2019-01-14T05:00:02.779Z,990.42
2019-01-14T05:01:02.793Z,990.27
2019-01-14T05:02:02.806Z,990.45
2019-01-14T05:03:02.820Z,990.58
2019-01-14T05:04:02.848Z,990.55
2019-01-14T05:05:02.847Z,990.58
2019-01-14T05:06:02.877Z,990.54
2019-01-14T05:07:02.875Z,990.65
2019-01-14T05:08:02.888Z,990.61
2019-01-14T05:09:02.902Z,990.58
2019-01-14T05:10:02.917Z,990.49
2019-01-14T05:11:02.930Z,990.7
2019-01-14T05:13:02.959Z,990.63
2019-01-14T05:14:02.971Z,990.7
2019-01-14T05:15:02.984Z,990.64
2019-01-14T05:16:02.998Z,990.88
2019-01-14T05:17:03.011Z,990.72
2019-01-14T05:18:03.033Z,990.66
2019-01-14T05:19:03.056Z,990.77
2019-01-14T05:20:03.053Z,990.82
2019-01-14T05:21:03.066Z,990.84
2019-01-14T05:22:03.078Z,990.76
2019-01-14T05:23:03.097Z,990.77
2019-01-14T05:24:03.107Z,990.81
2019-01-14T05:25:03.123Z,990.85
2019-01-14T05:26:03.134Z,990.9
2019-01-14T05:27:03.149Z,990.96
2019-01-14T05:29:03.175Z,990.96
2019-01-14T05:30:03.188Z,991.01
2019-01-14T05:31:03.202Z,990.93
2019-01-14T05:32:03.216Z,990.94
2019-01-14T05:33:03.229Z,990.95
2019-01-14T05:34:03.246Z,991
2019-01-14T05:35:03.263Z,991.04
2019-01-14T05:36:03.271Z,991
2019-01-14T05:37:03.283Z,990.96
2019-01-14T05:38:03.297Z,990.92
2019-01-14T05:39:03.316Z,991.04
2019-01-14T05:40:03.325Z,991.13
2019-01-14T05:41:03.339Z,990.98
2019-01-14T05:42:03.351Z,991.08
2019-01-14T05:43:03.366Z,991
2019-01-14T05:45:03.392Z,990.99
2019-01-14T05:46:03.408Z,990.99
2019-01-14T05:47:03.420Z,991.01
2019-01-14T05:48:03.433Z,991.05
2019-01-14T05:49:03.447Z,991.02
2019-01-14T05:50:03.461Z,991.05
2019-01-14T05:51:03.475Z,991.02
2019-01-14T05:52:03.487Z,991.01
2019-01-14T05:53:03.501Z,990.93
2019-01-14T05:54:03.516Z,990.97
2019-01-14T05:55:03.528Z,991.01
2019-01-14T05:56:03.543Z,990.99
2019-01-14T05:57:03.557Z,991.04
2019-01-14T05:58:03.570Z,990.98
2019-01-14T05:59:03.583Z,991.05
2019-01-14T06:01:03.618Z,991.01
2019-01-14T06:02:03.624Z,991.05
2019-01-14T06:03:03.637Z,990.99
2019-01-14T06:04:03.650Z,990.95
2019-01-14T06:05:03.665Z,990.87
2019-01-14T06:06:03.678Z,990.89
2019-01-14T06:07:03.692Z,990.95
2019-01-14T06:08:03.706Z,991
2019-01-14T06:09:03.719Z,990.97
2019-01-14T06:10:03.736Z,991.02
2019-01-14T06:11:03.747Z,991.03
2019-01-14T06:12:03.766Z,991.05
2019-01-14T06:13:03.775Z,990.98
2019-01-14T06:14:03.788Z,991.1
2019-01-14T06:16:03.826Z,991.07
2019-01-14T06:17:03.828Z,991.15
2019-01-14T06:18:03.841Z,991.2
2019-01-14T06:19:03.855Z,991.09
2019-01-14T06:20:03.869Z,991.14
2019-01-14T06:21:03.894Z,991.14
2019-01-14T06:22:03.905Z,991.17
2019-01-14T06:23:03.910Z,991.32
2019-01-14T06:24:03.923Z,991.13
2019-01-14T06:25:03.938Z,991.2
2019-01-14T06:26:03.951Z,991.3
2019-01-14T06:27:03.964Z,991.25
2019-01-14T06:28:03.990Z,991.23
2019-01-14T06:29:03.991Z,991.35
2019-01-14T06:30:04.005Z,991.34
2019-01-14T06:31:04.019Z,991.44
2019-01-14T06:32:04.032Z,991.63
2019-01-14T06:33:04.045Z,991.64
2019-01-14T06:34:04.060Z,991.66
2019-01-14T06:35:04.072Z,991.85
2019-01-14T06:36:04.087Z,991.92
2019-01-14T06:37:04.159Z,992.05
2019-01-14T06:38:04.114Z,991.98
2019-01-14T06:39:04.127Z,992.11
2019-01-14T06:40:04.141Z,991.91
2019-01-14T06:41:04.154Z,991.96
2019-01-14T06:42:07.459Z,991.98
2019-01-14T06:43:04.181Z,991.95
2019-01-14T06:44:04.195Z,991.93
2019-01-14T06:45:04.209Z,991.89
2019-01-14T06:46:04.221Z,992.08
2019-01-14T06:48:04.248Z,992.09
2019-01-14T06:49:04.263Z,992.13
2019-01-14T06:50:04.275Z,992.18
2019-01-14T06:51:04.288Z,992.25
2019-01-14T06:52:04.302Z,992.31
2019-01-14T06:53:04.316Z,992.41
2019-01-14T06:54:04.328Z,992.4
2019-01-14T06:55:04.341Z,992.42
2019-01-14T06:56:04.357Z,992.59
2019-01-14T06:57:04.367Z,992.5
2019-01-14T06:58:04.381Z,992.57
2019-01-14T06:59:04.393Z,992.52
2019-01-14T07:00:04.406Z,992.36
2019-01-14T07:01:04.421Z,992.47
2019-01-14T07:02:04.432Z,992.45
2019-01-14T07:04:04.457Z,992.48
2019-01-14T07:05:04.471Z,992.49
2019-01-14T07:06:04.483Z,992.47
2019-01-14T07:07:04.497Z,992.51
2019-01-14T07:08:04.509Z,992.44
2019-01-14T07:09:04.522Z,992.51
2019-01-14T07:10:04.538Z,992.6
2019-01-14T07:11:04.580Z,992.56
2019-01-14T07:12:04.561Z,992.57
2019-01-14T07:13:04.574Z,992.62
2019-01-14T07:14:04.586Z,992.67
2019-01-14T07:15:04.599Z,992.7
2019-01-14T07:16:04.611Z,992.81
2019-01-14T07:17:04.624Z,992.77
2019-01-14T07:18:06.052Z,992.8
2019-01-14T07:20:04.662Z,992.93
2019-01-14T07:21:04.676Z,992.88
2019-01-14T07:22:04.689Z,992.92
2019-01-14T07:23:04.702Z,992.97
2019-01-14T07:24:04.714Z,992.94
2019-01-14T07:25:04.727Z,993
2019-01-14T07:26:04.740Z,993.03
2019-01-14T07:27:04.757Z,993.03
2019-01-14T07:28:04.764Z,993.1
2019-01-14T07:29:06.344Z,993.1
2019-01-14T07:30:04.793Z,993.03
2019-01-14T07:31:04.803Z,993.09
2019-01-14T07:32:04.817Z,993.09
2019-01-14T07:33:04.832Z,993.08
2019-01-14T07:34:04.842Z,993.12
2019-01-14T07:36:04.868Z,993.15
2019-01-14T07:37:04.880Z,993.14
2019-01-14T07:38:06.801Z,993.2
2019-01-14T07:39:04.925Z,993.2
2019-01-14T07:40:05.399Z,993.15
2019-01-14T07:41:04.931Z,993.21
2019-01-14T07:42:04.944Z,993.2
2019-01-14T07:43:04.957Z,993.14
2019-01-14T07:44:04.971Z,993.22
2019-01-14T07:45:04.982Z,993.22
2019-01-14T07:46:04.995Z,993.24
2019-01-14T07:47:05.008Z,993.29
2019-01-14T07:48:05.023Z,993.28
2019-01-14T07:49:05.036Z,993.26
2019-01-14T07:51:05.062Z,993.32
2019-01-14T07:52:05.074Z,993.27
2019-01-14T07:53:05.086Z,993.4
2019-01-14T07:54:05.100Z,993.35
2019-01-14T07:55:05.113Z,993.34
2019-01-14T07:56:05.128Z,993.37
2019-01-14T07:57:05.142Z,993.42
2019-01-14T07:58:05.152Z,993.39
2019-01-14T07:59:05.164Z,993.45
2019-01-14T08:00:05.181Z,993.54
2019-01-14T08:01:05.192Z,993.41
2019-01-14T08:02:05.205Z,993.57
2019-01-14T08:03:05.216Z,993.46
2019-01-14T08:04:05.280Z,993.54
2019-01-14T08:05:05.245Z,993.58
2019-01-14T08:06:05.257Z,993.65
2019-01-14T08:07:05.269Z,993.7
2019-01-14T08:08:05.283Z,993.61
2019-01-14T08:09:05.296Z,993.62
2019-01-14T08:10:05.308Z,993.55
2019-01-14T08:11:05.321Z,993.72
2019-01-14T08:12:05.335Z,993.7
2019-01-14T08:13:05.348Z,993.64
2019-01-14T08:14:05.361Z,993.73
2019-01-14T08:15:05.374Z,993.74
2019-01-14T08:16:05.390Z,993.88
2019-01-14T08:17:05.400Z,993.77
2019-01-14T08:18:05.428Z,993.74
2019-01-14T08:19:05.476Z,993.79
2019-01-14T08:20:05.441Z,993.86
2019-01-14T08:21:05.452Z,993.94
2019-01-14T08:23:05.479Z,993.87
2019-01-14T08:24:05.493Z,993.96
2019-01-14T08:25:05.504Z,993.93
2019-01-14T08:26:05.518Z,993.94
2019-01-14T08:27:05.531Z,993.84
2019-01-14T08:28:05.545Z,994.01
2019-01-14T08:29:05.558Z,993.86
2019-01-14T08:30:05.571Z,993.86
2019-01-14T08:31:05.586Z,993.92
2019-01-14T08:32:05.598Z,993.9
2019-01-14T08:33:05.611Z,993.88
2019-01-14T08:34:05.625Z,993.9
2019-01-14T08:35:05.642Z,994
2019-01-14T08:36:05.650Z,994.02
2019-01-14T08:37:05.664Z,994.11
2019-01-14T08:39:05.692Z,993.91
2019-01-14T08:40:05.704Z,994.13
2019-01-14T08:41:05.718Z,994.06
2019-01-14T08:42:05.732Z,994.13
2019-01-14T08:43:05.746Z,994.09
2019-01-14T08:44:05.758Z,994.09
2019-01-14T08:45:05.772Z,994.15
2019-01-14T08:46:05.787Z,994.13
2019-01-14T08:47:05.798Z,994.07
2019-01-14T08:48:05.812Z,994.1
2019-01-14T08:49:05.826Z,994.16
2019-01-14T08:50:05.839Z,994.19
2019-01-14T08:51:05.852Z,994.11
2019-01-14T08:52:05.866Z,994.15
2019-01-14T08:53:05.880Z,994.17
2019-01-14T08:55:05.905Z,994.23
2019-01-14T08:56:06.020Z,994.15
2019-01-14T08:57:05.933Z,994.29
2019-01-14T08:58:05.946Z,994.31
2019-01-14T08:59:05.960Z,994.45
2019-01-14T09:00:05.973Z,994.41
2019-01-14T09:01:05.986Z,994.35
2019-01-14T09:02:05.999Z,994.34
2019-01-14T09:03:06.013Z,994.49
2019-01-14T09:04:06.026Z,994.4
2019-01-14T09:05:06.039Z,994.4
2019-01-14T09:06:06.057Z,994.48
2019-01-14T09:07:06.067Z,994.38
2019-01-14T09:08:06.081Z,994.38
2019-01-14T09:09:06.093Z,994.44
2019-01-14T09:11:06.121Z,994.55
2019-01-14T09:12:06.134Z,994.56
2019-01-14T09:13:06.151Z,994.53
2019-01-14T09:14:06.160Z,994.45
2019-01-14T09:15:06.178Z,994.52
2019-01-14T09:16:06.187Z,994.49
2019-01-14T09:17:06.200Z,994.56
2019-01-14T09:18:06.214Z,994.45
2019-01-14T09:19:06.228Z,994.53
2019-01-14T09:20:06.240Z,994.61
2019-01-14T09:21:06.254Z,994.59
2019-01-14T09:22:06.267Z,994.51
2019-01-14T09:23:06.383Z,994.65
2019-01-14T09:24:06.295Z,994.52
2019-01-14T09:26:06.323Z,994.64
2019-01-14T09:27:06.335Z,994.73
2019-01-14T09:28:06.350Z,994.59
2019-01-14T09:29:06.363Z,994.66
2019-01-14T09:30:06.376Z,994.58
2019-01-14T09:31:06.390Z,994.81
2019-01-14T09:32:06.406Z,994.67
2019-01-14T09:33:06.419Z,994.66
2019-01-14T09:34:06.435Z,994.79
2019-01-14T09:35:06.444Z,994.69
2019-01-14T09:36:06.457Z,994.9
2019-01-14T09:37:06.471Z,994.78
2019-01-14T09:38:06.484Z,994.74
2019-01-14T09:39:06.498Z,994.75
2019-01-14T09:40:06.513Z,994.77
2019-01-14T09:41:06.530Z,994.77
2019-01-14T09:42:06.538Z,994.82
2019-01-14T09:43:06.552Z,994.84
2019-01-14T09:44:06.567Z,994.71
2019-01-14T09:45:06.579Z,994.81
2019-01-14T09:46:06.593Z,994.85
2019-01-14T09:47:06.606Z,994.76
2019-01-14T09:48:06.620Z,994.7
2019-01-14T09:49:06.632Z,994.85
2019-01-14T09:50:06.646Z,994.75
2019-01-14T09:51:06.660Z,994.78
2019-01-14T09:52:06.674Z,994.83
2019-01-14T09:53:06.687Z,994.83
2019-01-14T09:54:06.700Z,994.84
2019-01-14T09:55:06.714Z,994.99
2019-01-14T09:56:06.727Z,994.91
2019-01-14T09:58:06.755Z,995.1
2019-01-14T09:59:06.770Z,994.91
2019-01-14T10:00:06.795Z,994.97
2019-01-14T10:01:06.796Z,995.05
2019-01-14T10:02:06.810Z,995.04
2019-01-14T10:03:07.325Z,994.94
2019-01-14T10:04:06.837Z,994.88
2019-01-14T10:05:06.851Z,994.96
2019-01-14T10:06:06.865Z,994.9
2019-01-14T10:07:06.886Z,994.84
2019-01-14T10:08:06.913Z,994.9
2019-01-14T10:09:06.906Z,995
2019-01-14T10:10:06.920Z,995
2019-01-14T10:11:06.933Z,995
2019-01-14T10:12:06.948Z,994.86
2019-01-14T10:14:06.977Z,994.87
2019-01-14T10:15:06.990Z,994.95
2019-01-14T10:16:07.004Z,995.02
2019-01-14T10:17:07.018Z,994.91
2019-01-14T10:18:07.031Z,994.8
2019-01-14T10:19:07.046Z,994.81
2019-01-14T10:20:07.060Z,994.8
2019-01-14T10:21:07.078Z,994.93
2019-01-14T10:22:07.087Z,994.84
2019-01-14T10:23:07.102Z,994.83
2019-01-14T10:24:07.122Z,994.89
2019-01-14T10:25:07.131Z,995.11
2019-01-14T10:26:07.144Z,994.83
2019-01-14T10:27:07.159Z,994.81
2019-01-14T10:28:07.173Z,994.78
2019-01-14T10:30:07.201Z,994.82
2019-01-14T10:31:07.215Z,994.9
2019-01-14T10:32:07.235Z,994.94
2019-01-14T10:33:07.244Z,994.94
2019-01-14T10:34:07.260Z,994.92
2019-01-14T10:35:07.275Z,994.92
2019-01-14T10:36:07.286Z,994.92
2019-01-14T10:37:07.315Z,994.87
2019-01-14T10:38:07.315Z,994.8
2019-01-14T10:39:07.329Z,994.72
2019-01-14T10:40:07.344Z,994.88
2019-01-14T10:41:07.357Z,994.89
2019-01-14T10:42:07.374Z,994.9
2019-01-14T10:43:07.389Z,994.92
2019-01-14T10:44:07.399Z,994.98
2019-01-14T10:46:07.428Z,994.98
2019-01-14T10:47:07.442Z,994.87
2019-01-14T10:48:07.456Z,994.85
2019-01-14T10:49:07.470Z,994.98
2019-01-14T10:50:07.484Z,994.89
2019-01-14T10:51:07.497Z,995.1
2019-01-14T10:52:07.513Z,994.84
2019-01-14T10:53:07.627Z,994.76
2019-01-14T10:54:07.541Z,994.86
2019-01-14T10:55:12.223Z,994.98
2019-01-14T10:56:07.771Z,994.93
2019-01-14T10:57:07.583Z,994.82
2019-01-14T10:58:07.598Z,994.88
2019-01-14T10:59:07.612Z,994.93
2019-01-14T11:01:07.641Z,994.92
2019-01-14T11:02:07.654Z,994.8
2019-01-14T11:03:07.668Z,994.91
2019-01-14T11:04:07.686Z,994.93
2019-01-14T11:05:07.697Z,994.98
2019-01-14T11:06:07.711Z,994.97
2019-01-14T11:07:07.724Z,994.98
2019-01-14T11:08:07.739Z,994.93
2019-01-14T11:09:07.764Z,994.96
2019-01-14T11:10:07.766Z,994.98
2019-01-14T11:11:07.781Z,995
2019-01-14T11:12:07.794Z,995.06
2019-01-14T11:13:07.809Z,995.04
2019-01-14T11:14:07.822Z,995.07
2019-01-14T11:15:07.837Z,995.12
2019-01-14T11:16:07.852Z,995.14
2019-01-14T11:17:07.864Z,995.08
2019-01-14T11:18:07.884Z,994.99
2019-01-14T11:19:07.893Z,995.17
2019-01-14T11:20:07.910Z,995.21
2019-01-14T11:21:07.920Z,995.13
2019-01-14T11:22:07.935Z,995.22
2019-01-14T11:23:07.952Z,995.19
2019-01-14T11:24:07.963Z,995.15
2019-01-14T11:25:07.978Z,995.16
2019-01-14T11:26:07.991Z,995.3
2019-01-14T11:27:08.006Z,995.2
2019-01-14T11:28:08.019Z,995.26
2019-01-14T11:29:08.034Z,995.28
2019-01-14T11:30:08.048Z,994.93
2019-01-14T11:31:08.107Z,995.21
2019-01-14T11:33:08.090Z,995.22
2019-01-14T11:34:08.105Z,995.56
2019-01-14T11:35:08.119Z,995.4
2019-01-14T11:36:08.135Z,995.34
2019-01-14T11:37:08.147Z,995.32
2019-01-14T11:38:08.162Z,995.26
2019-01-14T11:39:08.177Z,995.17
2019-01-14T11:40:08.190Z,995.31
2019-01-14T11:41:08.203Z,995.34
2019-01-14T11:42:08.218Z,995.33
2019-01-14T11:43:08.231Z,995.38
2019-01-14T11:44:08.245Z,995.32
2019-01-14T11:45:08.260Z,995.22
2019-01-14T11:46:08.273Z,995.2
2019-01-14T11:47:08.287Z,995.22
2019-01-14T11:49:08.317Z,995.26
2019-01-14T11:50:08.329Z,995.41
2019-01-14T11:51:08.343Z,995.25
2019-01-14T11:52:08.358Z,995.43
2019-01-14T11:53:08.371Z,995.41
2019-01-14T11:54:08.385Z,995.48
2019-01-14T11:55:08.399Z,995.44
2019-01-14T11:56:08.413Z,995.57
2019-01-14T11:57:08.427Z,995.61
2019-01-14T11:58:08.441Z,995.43
2019-01-14T11:59:08.456Z,995.61
2019-01-14T12:00:08.471Z,995.63
2019-01-14T12:01:08.484Z,995.73
2019-01-14T12:02:08.497Z,995.52
2019-01-14T12:03:08.772Z,995.56
2019-01-14T12:05:08.538Z,995.49
2019-01-14T12:06:08.553Z,995.51
2019-01-14T12:07:08.566Z,995.61
2019-01-14T12:08:08.579Z,995.58
2019-01-14T12:09:12.244Z,995.56
2019-01-14T12:10:08.609Z,995.68
2019-01-14T12:11:08.627Z,995.68
2019-01-14T12:12:08.635Z,995.64
2019-01-14T12:13:08.683Z,995.61
2019-01-14T12:14:08.663Z,995.51
2019-01-14T12:15:08.676Z,995.57
2019-01-14T12:16:08.692Z,995.57
2019-01-14T12:17:08.705Z,995.69
2019-01-14T12:18:08.718Z,995.72
2019-01-14T12:19:08.732Z,995.59
2019-01-14T12:21:08.759Z,995.6
2019-01-14T12:22:08.773Z,995.62
2019-01-14T12:23:08.786Z,995.59
2019-01-14T12:24:08.800Z,995.61
2019-01-14T12:25:08.825Z,995.65
2019-01-14T12:26:08.827Z,995.63
2019-01-14T12:27:08.841Z,995.62
2019-01-14T12:28:08.855Z,995.57
2019-01-14T12:29:08.869Z,995.7
2019-01-14T12:30:08.885Z,995.65
2019-01-14T12:31:08.896Z,995.69
2019-01-14T12:32:08.910Z,995.59
2019-01-14T12:33:08.924Z,995.66
2019-01-14T12:34:08.938Z,995.62
2019-01-14T12:36:08.966Z,995.74
2019-01-14T12:37:08.981Z,995.83
2019-01-14T12:38:08.992Z,995.85
2019-01-14T12:39:09.007Z,995.8
2019-01-14T12:40:09.021Z,995.96
2019-01-14T12:41:09.034Z,996.07
2019-01-14T12:42:09.048Z,995.89
2019-01-14T12:43:09.061Z,996.03
2019-01-14T12:44:09.075Z,995.96
2019-01-14T12:45:09.089Z,995.86
2019-01-14T12:46:09.102Z,996.03
2019-01-14T12:47:09.117Z,995.92
2019-01-14T12:48:09.129Z,995.96
2019-01-14T12:49:09.144Z,995.99
2019-01-14T12:50:09.157Z,996.08
2019-01-14T12:51:09.171Z,996.09
2019-01-14T12:52:09.184Z,996.11
2019-01-14T12:53:09.198Z,996.01
2019-01-14T12:54:09.211Z,996.1
2019-01-14T12:55:09.223Z,996.01
2019-01-14T12:56:09.237Z,996.13
2019-01-14T12:57:09.251Z,995.99
2019-01-14T12:58:09.266Z,996.3
2019-01-14T12:59:09.280Z,996.42
2019-01-14T13:00:09.292Z,996.44
2019-01-14T13:01:09.305Z,996.64
2019-01-14T13:02:09.319Z,996.54
2019-01-14T13:03:09.332Z,996.51
2019-01-14T13:04:09.345Z,996.59
2019-01-14T13:05:09.358Z,996.85
2019-01-14T13:06:09.374Z,996.91
2019-01-14T13:08:09.399Z,996.76
2019-01-14T13:09:09.411Z,996.6
2019-01-14T13:10:09.424Z,996.69
2019-01-14T13:11:09.441Z,996.59
2019-01-14T13:12:09.450Z,996.83
2019-01-14T13:13:09.464Z,996.57
2019-01-14T13:14:09.476Z,996.93